DAUK

Touggourt Sidi Madhi Airport

Airport
ICAO code
DAUK
IATA Code
TGR
Summary
ICAO Region
AFI
ICAO Territory
Location

, Ouargla

Serving
Touggourt
Elevation
279 ft
Coordinates
33° 4' 4" N , 6° 5' 19" E
Metar
DAUK 041200Z 33015KT 8000 NSC 18/M03 Q1019

Runways

Designator Length Width Surface Rops
1/19 3000 45 ASP No/No

Airport map

Aerial View

SKYbrary Partners:

Safety knowledge contributed by: